createdAt,value
2019-04-03T00:00:20.939Z,5.70
2019-04-03T00:02:50.338Z,6.33
2019-04-03T00:05:19.837Z,6.40
2019-04-03T00:07:49.245Z,6.20
2019-04-03T00:10:18.858Z,5.83
2019-04-03T00:12:48.304Z,6.17
2019-04-03T00:15:17.843Z,6.58
2019-04-03T00:17:47.218Z,6.10
2019-04-03T00:20:18.056Z,5.63
2019-04-03T00:22:47.560Z,6.00
2019-04-03T00:25:16.976Z,5.83
2019-04-03T00:27:47.297Z,5.97
2019-04-03T00:30:17.198Z,6.13
2019-04-03T00:32:46.421Z,5.90
2019-04-03T00:35:15.900Z,6.07
2019-04-03T00:37:45.356Z,5.50
2019-04-03T00:40:14.846Z,6.03
2019-04-03T00:42:43.999Z,5.83
2019-04-03T00:45:14.316Z,6.10
2019-04-03T00:47:43.746Z,5.90
2019-04-03T00:50:13.051Z,5.80
2019-04-03T00:52:42.463Z,6.33
2019-04-03T00:55:12.091Z,6.17
2019-04-03T00:57:41.504Z,6.17
2019-04-03T01:00:16.486Z,6.20
2019-04-03T01:02:45.699Z,6.63
2019-04-03T01:05:14.924Z,7.10
2019-04-03T01:07:44.322Z,6.20
2019-04-03T01:10:13.728Z,6.60
2019-04-03T01:12:43.319Z,6.53
2019-04-03T01:15:13.255Z,6.10
2019-04-03T01:17:42.810Z,6.17
2019-04-03T01:20:12.643Z,6.57
2019-04-03T01:22:42.204Z,5.97
2019-04-03T01:25:12.179Z,6.17
2019-04-03T01:27:42.101Z,6.73
2019-04-03T01:30:13.952Z,6.67
2019-04-03T01:32:46.131Z,6.50
2019-04-03T01:35:17.004Z,6.97
2019-04-03T01:37:46.182Z,6.27
2019-04-03T01:40:15.340Z,6.80
2019-04-03T01:42:44.790Z,6.40
2019-04-03T01:45:14.294Z,6.80
2019-04-03T01:47:43.762Z,6.03
2019-04-03T01:50:13.056Z,5.60
2019-04-03T01:52:42.237Z,6.67
2019-04-03T01:55:11.737Z,6.47
2019-04-03T01:57:42.234Z,6.97
2019-04-03T02:00:12.386Z,6.10
2019-04-03T02:02:41.901Z,6.50
2019-04-03T02:05:12.750Z,6.33
2019-04-03T02:07:44.725Z,6.33
2019-04-03T02:10:19.542Z,6.17
2019-04-03T02:12:51.247Z,6.60
2019-04-03T02:15:21.585Z,6.33
2019-04-03T02:17:54.255Z,6.00
2019-04-03T02:20:23.082Z,6.33
2019-04-03T02:22:52.397Z,6.60
2019-04-03T02:25:21.553Z,6.30
2019-04-03T02:27:51.209Z,5.73
2019-04-03T02:30:21.057Z,6.53
2019-04-03T02:32:50.462Z,6.43
2019-04-03T02:35:20.158Z,6.40
2019-04-03T02:37:50.787Z,5.97
2019-04-03T02:40:20.577Z,6.57
2019-04-03T02:42:50.258Z,5.80
2019-04-03T02:45:22.764Z,6.27
2019-04-03T02:47:50.928Z,6.03
2019-04-03T02:50:24.806Z,5.97
2019-04-03T02:52:57.946Z,6.73
2019-04-03T02:55:26.807Z,5.83
2019-04-03T02:57:56.606Z,5.80
2019-04-03T03:00:26.105Z,6.07
2019-04-03T03:02:55.595Z,6.30
2019-04-03T03:05:28.372Z,5.90
2019-04-03T03:07:56.339Z,6.17
2019-04-03T03:10:26.137Z,5.70
2019-04-03T03:12:59.733Z,5.70
2019-04-03T03:15:28.313Z,6.47
2019-04-03T03:17:58.370Z,6.47
2019-04-03T03:20:29.941Z,5.83
2019-04-03T03:23:01.095Z,6.03
2019-04-03T03:25:33.626Z,6.23
2019-04-03T03:28:03.271Z,6.30
2019-04-03T03:30:43.361Z,5.73
2019-04-03T03:33:25.002Z,6.63
2019-04-03T03:35:42.660Z,5.83
2019-04-03T03:38:08.316Z,6.07
2019-04-03T03:40:38.284Z,5.73
2019-04-03T03:43:08.858Z,5.60
2019-04-03T03:45:38.747Z,6.50
2019-04-03T03:48:10.444Z,5.67
2019-04-03T03:50:39.988Z,6.53
2019-04-03T03:53:12.539Z,5.37
2019-04-03T03:55:43.447Z,6.37
2019-04-03T03:58:14.249Z,5.93
2019-04-03T04:00:51.085Z,6.17
2019-04-03T04:03:16.444Z,5.53
2019-04-03T04:05:46.381Z,5.97
2019-04-03T04:08:16.308Z,5.93
2019-04-03T04:10:45.962Z,6.00
2019-04-03T04:13:16.963Z,5.90
2019-04-03T04:15:47.171Z,5.80
2019-04-03T04:18:17.242Z,5.23
2019-04-03T04:20:47.881Z,5.17
2019-04-03T04:23:18.150Z,6.13
2019-04-03T04:25:49.412Z,5.73
2019-04-03T04:28:19.481Z,6.37
2019-04-03T04:30:49.928Z,6.30
2019-04-03T04:33:19.109Z,5.47
2019-04-03T04:35:51.665Z,5.97
2019-04-03T04:38:19.423Z,6.63
2019-04-03T04:40:48.862Z,5.77
2019-04-03T04:43:18.134Z,5.80
2019-04-03T04:45:47.592Z,5.90
2019-04-03T04:48:20.130Z,6.03
2019-04-03T04:50:48.559Z,6.60
2019-04-03T04:53:18.028Z,6.40
2019-04-03T04:55:47.176Z,6.00
2019-04-03T04:58:16.684Z,5.67
2019-04-03T05:00:47.551Z,6.13
2019-04-03T05:03:21.112Z,6.17
2019-04-03T05:05:49.730Z,5.80
2019-04-03T05:08:19.153Z,5.90
2019-04-03T05:10:49.080Z,6.33
2019-04-03T05:13:19.192Z,5.77
2019-04-03T05:15:48.902Z,6.43
2019-04-03T05:18:18.120Z,6.10
2019-04-03T05:20:48.818Z,6.30
2019-04-03T05:23:18.730Z,6.37
2019-04-03T05:25:48.148Z,5.97
2019-04-03T05:28:17.352Z,6.33
2019-04-03T05:30:46.754Z,6.33
2019-04-03T05:33:16.093Z,5.90
2019-04-03T05:35:46.550Z,6.07
2019-04-03T05:38:16.096Z,6.33
2019-04-03T05:40:45.428Z,6.17
2019-04-03T05:43:14.928Z,5.77
2019-04-03T05:45:44.604Z,6.90
2019-04-03T05:48:17.788Z,6.00
2019-04-03T05:50:45.667Z,6.43
2019-04-03T05:53:14.821Z,6.80
2019-04-03T05:55:44.055Z,7.13
2019-04-03T05:58:15.288Z,6.37
2019-04-03T06:00:44.164Z,6.30
2019-04-03T06:03:13.551Z,6.47
2019-04-03T06:05:43.942Z,6.73
2019-04-03T06:08:13.974Z,6.37
2019-04-03T06:10:43.242Z,7.20
2019-04-03T06:13:12.654Z,7.03
2019-04-03T06:15:41.811Z,7.17
2019-04-03T06:18:11.025Z,6.80
2019-04-03T06:20:42.567Z,6.40
2019-04-03T06:23:13.137Z,6.90
2019-04-03T06:25:42.700Z,6.60
2019-04-03T06:28:13.812Z,7.10
2019-04-03T06:30:43.239Z,7.10
2019-04-03T06:33:12.738Z,7.10
2019-04-03T06:35:44.659Z,7.00
2019-04-03T06:38:13.433Z,6.90
2019-04-03T06:40:42.907Z,6.90
2019-04-03T06:43:12.206Z,7.40
2019-04-03T06:45:43.230Z,7.27
2019-04-03T06:48:15.219Z,6.70
2019-04-03T06:50:44.825Z,7.17
2019-04-03T06:53:14.130Z,6.97
2019-04-03T06:55:43.872Z,7.03
2019-04-03T06:58:13.386Z,7.33
2019-04-03T07:00:42.593Z,7.33
2019-04-03T07:03:13.207Z,7.20
2019-04-03T07:05:42.695Z,7.53
2019-04-03T07:08:12.953Z,7.97
2019-04-03T07:10:54.246Z,7.23
2019-04-03T07:13:15.136Z,7.43
2019-04-03T07:15:44.089Z,7.77
2019-04-03T07:18:13.270Z,7.60
2019-04-03T07:20:42.462Z,8.20
2019-04-03T07:23:11.636Z,7.67
2019-04-03T07:25:41.098Z,7.30
2019-04-03T07:28:10.722Z,7.80
2019-04-03T07:30:39.949Z,8.03
2019-04-03T07:33:09.216Z,8.30
2019-04-03T07:35:40.431Z,7.67
2019-04-03T07:38:09.427Z,7.73
2019-04-03T07:40:38.680Z,7.80
2019-04-03T07:43:08.677Z,7.10
2019-04-03T07:45:37.839Z,8.07
2019-04-03T07:48:07.132Z,7.43
2019-04-03T07:50:37.123Z,8.73
2019-04-03T07:53:06.771Z,8.20
2019-04-03T07:55:35.923Z,7.70
2019-04-03T07:58:05.146Z,8.00
2019-04-03T08:00:36.098Z,8.37
2019-04-03T08:03:05.436Z,7.73
2019-04-03T08:05:34.642Z,7.30
2019-04-03T08:08:04.481Z,8.40
2019-04-03T08:10:33.985Z,7.70
2019-04-03T08:13:04.995Z,7.70
2019-04-03T08:15:35.706Z,8.40
2019-04-03T08:18:05.135Z,8.20
2019-04-03T08:20:36.675Z,8.33
2019-04-03T08:23:06.336Z,8.20
2019-04-03T08:25:36.957Z,8.40
2019-04-03T08:28:06.488Z,8.37
2019-04-03T08:30:37.059Z,7.83
2019-04-03T08:33:15.902Z,7.90
2019-04-03T08:35:37.548Z,7.00
2019-04-03T08:38:06.996Z,7.87
2019-04-03T08:40:36.935Z,8.13
2019-04-03T08:43:06.211Z,8.20
2019-04-03T08:45:37.588Z,8.47
2019-04-03T08:48:07.276Z,7.80
2019-04-03T08:50:36.936Z,7.93
2019-04-03T08:53:08.339Z,8.03
2019-04-03T08:55:37.314Z,7.23
2019-04-03T08:58:06.737Z,7.87
2019-04-03T09:00:36.229Z,8.40
2019-04-03T09:03:05.399Z,8.83
2019-04-03T09:05:35.082Z,8.77
2019-04-03T09:08:04.761Z,7.70
2019-04-03T09:10:36.771Z,7.50
2019-04-03T09:13:16.137Z,8.30
2019-04-03T09:15:35.668Z,7.63
2019-04-03T09:18:06.742Z,8.10
2019-04-03T09:20:36.868Z,9.13
2019-04-03T09:23:06.503Z,10.17
2019-04-03T09:25:36.315Z,11.30
2019-04-03T09:28:05.671Z,10.30
2019-04-03T09:30:35.259Z,10.53
2019-04-03T09:33:05.713Z,8.50
2019-04-03T09:35:36.032Z,10.23
2019-04-03T09:38:05.389Z,9.57
2019-04-03T09:40:36.206Z,10.17
2019-04-03T09:43:05.745Z,8.97
2019-04-03T09:45:35.299Z,8.50
2019-04-03T09:48:06.163Z,8.03
2019-04-03T09:50:35.997Z,7.77
2019-04-03T09:53:05.735Z,8.50
2019-04-03T09:55:37.472Z,7.77
2019-04-03T09:58:06.808Z,8.30
2019-04-03T10:00:36.431Z,7.13
2019-04-03T10:03:06.193Z,7.30
2019-04-03T10:05:35.406Z,6.87
2019-04-03T10:08:07.707Z,7.10
2019-04-03T10:10:36.050Z,7.30
2019-04-03T10:13:05.553Z,6.23
2019-04-03T10:15:35.103Z,6.67
2019-04-03T10:18:04.673Z,6.67
2019-04-03T10:20:34.153Z,6.37
2019-04-03T10:23:03.535Z,6.73
2019-04-03T10:25:32.812Z,6.60
2019-04-03T10:28:02.594Z,6.97
2019-04-03T10:30:32.390Z,6.80
2019-04-03T10:33:01.556Z,5.77
2019-04-03T10:35:30.761Z,6.20
2019-04-03T10:38:00.169Z,6.60
2019-04-03T10:40:29.900Z,6.37
2019-04-03T10:43:00.959Z,6.00
2019-04-03T10:45:30.793Z,5.80
2019-04-03T10:48:00.307Z,6.57
2019-04-03T10:50:29.791Z,6.13
2019-04-03T10:52:59.238Z,5.90
2019-04-03T10:55:29.631Z,6.30
2019-04-03T10:58:01.501Z,6.20
2019-04-03T11:00:30.038Z,5.77
2019-04-03T11:02:59.387Z,6.63
2019-04-03T11:05:28.929Z,6.07
2019-04-03T11:07:58.395Z,5.57
2019-04-03T11:10:27.907Z,6.40
2019-04-03T11:12:57.377Z,6.00
2019-04-03T11:15:27.065Z,6.23
2019-04-03T11:17:56.759Z,6.40
2019-04-03T11:20:26.176Z,6.20
2019-04-03T11:23:05.999Z,6.10
2019-04-03T11:25:26.940Z,5.90
2019-04-03T11:27:57.178Z,6.17
2019-04-03T11:30:27.583Z,5.97
2019-04-03T11:32:57.393Z,6.60
2019-04-03T11:35:27.145Z,6.20
2019-04-03T11:37:57.527Z,6.10
2019-04-03T11:40:27.283Z,6.60
2019-04-03T11:42:57.055Z,5.97
2019-04-03T11:45:26.247Z,6.27
2019-04-03T11:47:55.745Z,6.00
2019-04-03T11:50:25.857Z,6.30
2019-04-03T11:52:55.572Z,6.77
2019-04-03T11:55:24.735Z,6.97
2019-04-03T11:57:54.208Z,6.70
2019-04-03T12:00:35.218Z,7.00
2019-04-03T12:03:05.599Z,6.73
2019-04-03T12:05:35.103Z,6.27
2019-04-03T12:08:05.309Z,7.03
2019-04-03T12:10:35.609Z,6.80
2019-04-03T12:13:05.886Z,7.23
2019-04-03T12:15:35.740Z,7.73
2019-04-03T12:18:06.526Z,7.20
2019-04-03T12:20:36.441Z,7.30
2019-04-03T12:23:06.164Z,6.97
2019-04-03T12:25:38.212Z,7.33
2019-04-03T12:28:07.913Z,7.13
2019-04-03T12:30:37.072Z,6.70
2019-04-03T12:33:06.795Z,7.10
2019-04-03T12:35:36.411Z,6.73
2019-04-03T12:38:05.886Z,6.63
2019-04-03T12:40:35.703Z,6.73
2019-04-03T12:43:05.441Z,6.30
2019-04-03T12:45:34.978Z,6.73
2019-04-03T12:48:04.847Z,5.90
2019-04-03T12:50:34.711Z,6.77
2019-04-03T12:53:04.209Z,5.50
2019-04-03T12:55:33.797Z,5.73
2019-04-03T12:58:05.049Z,6.03
2019-04-03T13:00:34.755Z,5.83
2019-04-03T13:03:04.594Z,5.83
2019-04-03T13:05:36.322Z,6.40
2019-04-03T13:08:05.531Z,6.20
2019-04-03T13:10:42.181Z,6.50
2019-04-03T13:13:06.828Z,6.30
2019-04-03T13:15:37.592Z,6.50
2019-04-03T13:18:07.820Z,5.97
2019-04-03T13:20:37.697Z,5.93
2019-04-03T13:23:07.653Z,6.10
2019-04-03T13:25:36.957Z,6.17
2019-04-03T13:28:06.342Z,6.30
2019-04-03T13:30:35.769Z,6.87
2019-04-03T13:33:07.037Z,6.07
2019-04-03T13:35:36.002Z,6.63
2019-04-03T13:38:05.162Z,6.37
2019-04-03T13:40:37.801Z,6.33
2019-04-03T13:43:07.065Z,6.60
2019-04-03T13:45:36.919Z,6.13
2019-04-03T13:48:06.541Z,6.90
2019-04-03T13:50:36.959Z,6.20
2019-04-03T13:53:06.652Z,6.17
2019-04-03T13:55:38.961Z,6.47
2019-04-03T13:58:07.040Z,6.10
2019-04-03T14:00:37.165Z,6.07
2019-04-03T14:03:06.963Z,6.17
2019-04-03T14:05:36.963Z,6.40
2019-04-03T14:08:07.475Z,6.13
2019-04-03T14:10:37.731Z,6.63
2019-04-03T14:13:07.199Z,6.40
2019-04-03T14:15:36.742Z,5.80
2019-04-03T14:18:07.881Z,5.77
2019-04-03T14:20:37.524Z,5.93
2019-04-03T14:23:07.783Z,5.80
2019-04-03T14:25:38.712Z,5.87
2019-04-03T14:28:08.323Z,6.10
2019-04-03T14:30:37.479Z,6.17
2019-04-03T14:33:07.651Z,6.00
2019-04-03T14:35:48.755Z,5.67
2019-04-03T14:38:11.520Z,6.20
2019-04-03T14:40:39.649Z,5.70
2019-04-03T14:43:08.857Z,5.80
2019-04-03T14:45:39.606Z,7.07
2019-04-03T14:48:09.703Z,5.80
2019-04-03T14:50:39.146Z,7.00
2019-04-03T14:53:08.463Z,6.83
2019-04-03T14:55:46.639Z,6.90
2019-04-03T14:58:08.826Z,7.50
2019-04-03T15:00:38.329Z,6.67
2019-04-03T15:03:08.359Z,7.23
2019-04-03T15:05:39.637Z,7.10
2019-04-03T15:08:10.284Z,7.13
2019-04-03T15:10:40.435Z,7.60
2019-04-03T15:13:12.646Z,6.60
2019-04-03T15:15:41.327Z,6.00
2019-04-03T15:18:11.324Z,6.40
2019-04-03T15:20:41.241Z,6.87
2019-04-03T15:23:10.783Z,6.30
2019-04-03T15:25:42.544Z,6.00
2019-04-03T15:28:10.845Z,6.00
2019-04-03T15:30:41.637Z,6.33
2019-04-03T15:33:10.901Z,5.70
2019-04-03T15:35:40.421Z,6.23
2019-04-03T15:38:10.818Z,6.03
2019-04-03T15:40:40.997Z,6.00
2019-04-03T15:43:11.966Z,6.00
2019-04-03T15:45:41.300Z,6.20
2019-04-03T15:48:10.566Z,5.93
2019-04-03T15:50:40.017Z,5.90
2019-04-03T15:53:09.365Z,6.43
2019-04-03T15:55:39.481Z,5.53
2019-04-03T15:58:09.430Z,6.10
2019-04-03T16:00:39.413Z,6.00
2019-04-03T16:03:09.809Z,5.77
2019-04-03T16:05:38.960Z,5.63
2019-04-03T16:08:09.804Z,6.17
2019-04-03T16:10:39.409Z,6.10
2019-04-03T16:13:09.267Z,5.73
2019-04-03T16:15:38.871Z,6.13
2019-04-03T16:18:09.070Z,6.77
2019-04-03T16:20:39.131Z,6.07
2019-04-03T16:23:09.176Z,6.43
2019-04-03T16:25:40.309Z,6.20
2019-04-03T16:28:12.931Z,6.27
2019-04-03T16:30:41.127Z,6.47
2019-04-03T16:33:19.874Z,6.30
2019-04-03T16:35:44.757Z,6.23
2019-04-03T16:38:12.673Z,6.40
2019-04-03T16:40:42.477Z,6.90
2019-04-03T16:43:12.678Z,6.63
2019-04-03T16:45:42.270Z,6.60
2019-04-03T16:48:12.371Z,6.70
2019-04-03T16:50:42.092Z,6.90
2019-04-03T16:53:12.777Z,6.97
2019-04-03T16:55:41.982Z,6.40
2019-04-03T16:58:11.591Z,6.80
2019-04-03T17:00:42.712Z,7.00
2019-04-03T17:03:17.122Z,6.40
2019-04-03T17:05:47.281Z,6.63
2019-04-03T17:08:17.177Z,7.03
2019-04-03T17:10:46.772Z,6.63
2019-04-03T17:13:15.933Z,7.30
2019-04-03T17:15:45.748Z,6.53
2019-04-03T17:18:17.155Z,6.60
2019-04-03T17:20:49.683Z,6.73
2019-04-03T17:23:18.023Z,6.83
2019-04-03T17:25:50.122Z,6.37
2019-04-03T17:28:18.591Z,7.10
2019-04-03T17:30:49.869Z,7.17
2019-04-03T17:33:18.856Z,7.13
2019-04-03T17:35:48.462Z,6.60
2019-04-03T17:38:18.255Z,7.20
2019-04-03T17:40:47.442Z,6.50
2019-04-03T17:43:17.690Z,6.70
2019-04-03T17:45:49.267Z,7.53
2019-04-03T17:48:18.778Z,6.53
2019-04-03T17:50:48.306Z,9.10
2019-04-03T17:53:17.515Z,7.03
2019-04-03T17:55:46.877Z,7.17
2019-04-03T17:58:17.450Z,8.20
2019-04-03T18:00:47.079Z,7.60
2019-04-03T18:03:19.293Z,6.83
2019-04-03T18:05:47.174Z,7.53
2019-04-03T18:08:16.509Z,8.90
2019-04-03T18:10:46.047Z,9.63
2019-04-03T18:13:15.674Z,7.57
2019-04-03T18:15:45.093Z,7.00
2019-04-03T18:18:15.874Z,7.13
2019-04-03T18:20:45.548Z,7.90
2019-04-03T18:23:15.280Z,8.00
2019-04-03T18:25:44.825Z,7.67
2019-04-03T18:28:14.342Z,7.47
2019-04-03T18:30:44.990Z,7.57
2019-04-03T18:33:16.772Z,7.50
2019-04-03T18:35:45.565Z,8.33
2019-04-03T18:38:14.994Z,7.97
2019-04-03T18:40:46.408Z,8.60
2019-04-03T18:43:15.236Z,9.87
2019-04-03T18:45:44.411Z,9.13
2019-04-03T18:48:16.254Z,8.83
2019-04-03T18:50:45.445Z,9.30
2019-04-03T18:53:14.926Z,8.57
2019-04-03T18:55:45.301Z,8.53
2019-04-03T18:58:15.203Z,9.60
2019-04-03T19:00:44.643Z,8.93
2019-04-03T19:03:14.161Z,8.90
2019-04-03T19:05:43.409Z,8.40
2019-04-03T19:08:13.764Z,9.60
2019-04-03T19:10:43.532Z,9.30
2019-04-03T19:13:13.969Z,9.53
2019-04-03T19:15:44.167Z,10.10
2019-04-03T19:18:19.553Z,13.20
2019-04-03T19:20:44.779Z,15.07
2019-04-03T19:23:15.109Z,10.87
2019-04-03T19:25:45.453Z,10.13
2019-04-03T19:28:14.926Z,13.00
2019-04-03T19:30:44.462Z,17.40
2019-04-03T19:33:14.562Z,20.37
2019-04-03T19:35:44.646Z,11.50
2019-04-03T19:38:13.820Z,11.80
2019-04-03T19:40:44.137Z,10.87
2019-04-03T19:43:14.954Z,10.00
2019-04-03T19:45:44.732Z,9.63
2019-04-03T19:48:14.255Z,9.87
2019-04-03T19:50:43.984Z,9.57
2019-04-03T19:53:14.123Z,9.83
2019-04-03T19:55:44.023Z,9.93
2019-04-03T19:58:13.507Z,9.60
2019-04-03T20:00:43.295Z,10.03
2019-04-03T20:03:14.182Z,9.67
2019-04-03T20:05:44.309Z,9.10
2019-04-03T20:08:13.850Z,9.67
2019-04-03T20:10:43.169Z,9.13
2019-04-03T20:13:13.475Z,9.73
2019-04-03T20:15:42.943Z,9.37
2019-04-03T20:18:12.511Z,10.77
2019-04-03T20:20:42.211Z,15.13
2019-04-03T20:23:13.103Z,18.70
2019-04-03T20:25:44.004Z,11.93
2019-04-03T20:28:13.907Z,9.73
2019-04-03T20:30:43.649Z,9.07
2019-04-03T20:33:12.847Z,9.17
2019-04-03T20:35:42.226Z,9.23
2019-04-03T20:38:11.426Z,8.40
2019-04-03T20:40:40.866Z,8.33
2019-04-03T20:43:11.945Z,8.37
2019-04-03T20:45:41.471Z,8.30
2019-04-03T20:48:12.068Z,8.77
2019-04-03T20:50:41.485Z,9.53
2019-04-03T20:53:11.079Z,9.43
2019-04-03T20:55:40.349Z,8.10
2019-04-03T20:58:10.125Z,8.83
2019-04-03T21:00:39.337Z,8.80
2019-04-03T21:03:14.630Z,8.37
2019-04-03T21:05:44.066Z,8.83
2019-04-03T21:08:13.228Z,8.50
2019-04-03T21:10:42.820Z,8.43
2019-04-03T21:13:15.226Z,8.90
2019-04-03T21:15:45.361Z,8.00
2019-04-03T21:18:14.944Z,9.57
2019-04-03T21:20:44.395Z,10.17
2019-04-03T21:23:13.885Z,10.67
2019-04-03T21:25:43.098Z,10.17
2019-04-03T21:28:12.487Z,10.33
2019-04-03T21:30:41.657Z,10.60
2019-04-03T21:33:12.114Z,10.63
2019-04-03T21:35:41.491Z,10.20
2019-04-03T21:38:11.470Z,10.03
2019-04-03T21:40:41.430Z,10.23
2019-04-03T21:43:11.154Z,10.27
2019-04-03T21:45:40.661Z,9.50
2019-04-03T21:48:13.800Z,9.13
2019-04-03T21:50:42.965Z,8.83
2019-04-03T21:53:12.385Z,8.80
2019-04-03T21:55:42.005Z,9.47
2019-04-03T21:58:11.629Z,8.73
2019-04-03T22:00:55.348Z,9.17
2019-04-03T22:03:24.974Z,8.47
2019-04-03T22:05:56.064Z,9.37
2019-04-03T22:08:26.990Z,8.53
2019-04-03T22:10:56.606Z,8.50
2019-04-03T22:13:25.768Z,8.97
2019-04-03T22:15:55.747Z,8.50
2019-04-03T22:18:25.122Z,9.73
2019-04-03T22:20:54.283Z,9.93
2019-04-03T22:23:23.765Z,9.37
2019-04-03T22:25:53.241Z,9.20
2019-04-03T22:28:22.399Z,9.60
2019-04-03T22:30:52.535Z,8.80
2019-04-03T22:33:22.575Z,8.50
2019-04-03T22:35:51.726Z,8.67
2019-04-03T22:38:22.165Z,9.40
2019-04-03T22:40:52.318Z,8.73
2019-04-03T22:43:21.466Z,9.47
2019-04-03T22:45:51.167Z,9.03
2019-04-03T22:48:21.234Z,8.93
2019-04-03T22:50:50.382Z,8.43
2019-04-03T22:53:20.722Z,8.67
2019-04-03T22:55:50.168Z,8.43
2019-04-03T22:58:21.494Z,8.83
2019-04-03T23:00:50.754Z,9.27
2019-04-03T23:03:19.917Z,8.83
2019-04-03T23:05:49.491Z,9.33
2019-04-03T23:08:18.955Z,9.50
2019-04-03T23:10:48.187Z,9.43
2019-04-03T23:13:18.195Z,9.43
2019-04-03T23:15:47.506Z,10.57
2019-04-03T23:18:16.967Z,9.53
2019-04-03T23:20:46.447Z,9.63
2019-04-03T23:23:16.023Z,9.03
2019-04-03T23:25:45.471Z,10.03
2019-04-03T23:28:14.705Z,9.87
2019-04-03T23:30:44.396Z,9.07
2019-04-03T23:33:16.672Z,10.17
2019-04-03T23:35:44.789Z,9.57
2019-04-03T23:38:14.275Z,9.67
2019-04-03T23:40:43.723Z,10.00
2019-04-03T23:43:12.877Z,9.97
2019-04-03T23:45:43.827Z,9.90
2019-04-03T23:48:13.459Z,9.93
2019-04-03T23:50:42.606Z,10.73
2019-04-03T23:53:12.089Z,10.10
2019-04-03T23:55:41.583Z,10.10
2019-04-03T23:58:11.429Z,9.77
